sensor_id;sensor_type;location;lat;lon;timestamp;P1;durP1;ratioP1;P2;durP2;ratioP2
7166;SDS011;3625;51.762;14.320;2023-07-28T00:00:26;2.00;;;1.70;;
7166;SDS011;3625;51.762;14.320;2023-07-28T00:02:54;2.85;;;1.40;;
7166;SDS011;3625;51.762;14.320;2023-07-28T00:05:23;1.70;;;1.60;;
7166;SDS011;3625;51.762;14.320;2023-07-28T00:07:51;1.60;;;1.48;;
7166;SDS011;3625;51.762;14.320;2023-07-28T00:10:20;3.00;;;1.60;;
7166;SDS011;3625;51.762;14.320;2023-07-28T00:12:50;1.70;;;1.60;;
7166;SDS011;3625;51.762;14.320;2023-07-28T00:15:18;2.05;;;1.58;;
7166;SDS011;3625;51.762;14.320;2023-07-28T00:17:47;1.95;;;1.65;;
7166;SDS011;3625;51.762;14.320;2023-07-28T00:20:15;1.60;;;1.50;;
7166;SDS011;3625;51.762;14.320;2023-07-28T00:22:45;2.08;;;1.50;;
7166;SDS011;3625;51.762;14.320;2023-07-28T00:25:13;1.73;;;1.63;;
7166;SDS011;3625;51.762;14.320;2023-07-28T00:27:42;2.45;;;1.48;;
7166;SDS011;3625;51.762;14.320;2023-07-28T00:30:12;3.08;;;1.48;;
7166;SDS011;3625;51.762;14.320;2023-07-28T00:32:41;2.03;;;1.50;;
7166;SDS011;3625;51.762;14.320;2023-07-28T00:35:09;2.92;;;1.60;;
7166;SDS011;3625;51.762;14.320;2023-07-28T00:37:37;2.28;;;1.40;;
7166;SDS011;3625;51.762;14.320;2023-07-28T00:40:06;2.78;;;1.60;;
7166;SDS011;3625;51.762;14.320;2023-07-28T00:42:36;2.08;;;1.48;;
7166;SDS011;3625;51.762;14.320;2023-07-28T00:45:06;2.03;;;1.60;;
7166;SDS011;3625;51.762;14.320;2023-07-28T00:47:37;2.80;;;1.38;;
7166;SDS011;3625;51.762;14.320;2023-07-28T00:50:06;2.22;;;1.38;;
7166;SDS011;3625;51.762;14.320;2023-07-28T00:52:38;2.40;;;1.40;;
7166;SDS011;3625;51.762;14.320;2023-07-28T00:55:08;1.95;;;1.70;;
7166;SDS011;3625;51.762;14.320;2023-07-28T00:57:37;3.40;;;1.70;;
7166;SDS011;3625;51.762;14.320;2023-07-28T01:00:06;1.75;;;1.38;;
7166;SDS011;3625;51.762;14.320;2023-07-28T01:02:38;3.53;;;1.40;;
7166;SDS011;3625;51.762;14.320;2023-07-28T01:05:07;2.28;;;1.40;;
7166;SDS011;3625;51.762;14.320;2023-07-28T01:07:36;1.80;;;1.27;;
7166;SDS011;3625;51.762;14.320;2023-07-28T01:10:13;2.70;;;1.50;;
7166;SDS011;3625;51.762;14.320;2023-07-28T01:12:46;1.50;;;1.40;;
7166;SDS011;3625;51.762;14.320;2023-07-28T01:15:14;2.67;;;1.50;;
7166;SDS011;3625;51.762;14.320;2023-07-28T01:17:44;2.55;;;1.40;;
7166;SDS011;3625;51.762;14.320;2023-07-28T01:20:13;1.30;;;1.20;;
7166;SDS011;3625;51.762;14.320;2023-07-28T01:22:51;1.83;;;1.40;;
7166;SDS011;3625;51.762;14.320;2023-07-28T01:28:33;2.05;;;1.40;;
7166;SDS011;3625;51.762;14.320;2023-07-28T01:31:03;2.47;;;1.40;;
7166;SDS011;3625;51.762;14.320;2023-07-28T01:33:33;2.38;;;1.20;;
7166;SDS011;3625;51.762;14.320;2023-07-28T01:36:02;1.40;;;1.30;;
7166;SDS011;3625;51.762;14.320;2023-07-28T01:38:31;1.98;;;1.35;;
7166;SDS011;3625;51.762;14.320;2023-07-28T01:40:59;4.95;;;1.40;;
7166;SDS011;3625;51.762;14.320;2023-07-28T01:43:28;1.45;;;1.35;;
7166;SDS011;3625;51.762;14.320;2023-07-28T01:45:58;3.22;;;1.20;;
7166;SDS011;3625;51.762;14.320;2023-07-28T01:48:26;1.08;;;1.02;;
7166;SDS011;3625;51.762;14.320;2023-07-28T01:50:55;1.50;;;1.40;;
7166;SDS011;3625;51.762;14.320;2023-07-28T01:53:23;1.52;;;1.33;;
7166;SDS011;3625;51.762;14.320;2023-07-28T01:55:52;2.08;;;1.02;;
7166;SDS011;3625;51.762;14.320;2023-07-28T01:58:20;2.45;;;1.30;;
7166;SDS011;3625;51.762;14.320;2023-07-28T02:00:49;3.25;;;1.30;;
7166;SDS011;3625;51.762;14.320;2023-07-28T02:03:18;2.42;;;1.85;;
7166;SDS011;3625;51.762;14.320;2023-07-28T02:05:47;1.85;;;1.52;;
7166;SDS011;3625;51.762;14.320;2023-07-28T02:08:16;2.00;;;1.38;;
7166;SDS011;3625;51.762;14.320;2023-07-28T02:10:45;1.63;;;1.33;;
7166;SDS011;3625;51.762;14.320;2023-07-28T02:13:13;3.33;;;1.20;;
7166;SDS011;3625;51.762;14.320;2023-07-28T02:15:42;2.08;;;1.30;;
7166;SDS011;3625;51.762;14.320;2023-07-28T02:18:10;1.67;;;1.25;;
7166;SDS011;3625;51.762;14.320;2023-07-28T02:20:40;2.30;;;1.55;;
7166;SDS011;3625;51.762;14.320;2023-07-28T02:23:09;1.85;;;1.55;;
7166;SDS011;3625;51.762;14.320;2023-07-28T02:25:39;2.60;;;1.30;;
7166;SDS011;3625;51.762;14.320;2023-07-28T02:28:08;1.88;;;1.30;;
7166;SDS011;3625;51.762;14.320;2023-07-28T02:30:38;3.35;;;1.52;;
7166;SDS011;3625;51.762;14.320;2023-07-28T02:33:07;1.30;;;1.20;;
7166;SDS011;3625;51.762;14.320;2023-07-28T02:35:35;1.77;;;1.25;;
7166;SDS011;3625;51.762;14.320;2023-07-28T02:38:05;1.55;;;1.45;;
7166;SDS011;3625;51.762;14.320;2023-07-28T02:40:34;3.10;;;1.35;;
7166;SDS011;3625;51.762;14.320;2023-07-28T02:43:02;2.03;;;1.15;;
7166;SDS011;3625;51.762;14.320;2023-07-28T02:45:31;1.27;;;1.10;;
7166;SDS011;3625;51.762;14.320;2023-07-28T02:47:59;1.40;;;1.15;;
7166;SDS011;3625;51.762;14.320;2023-07-28T02:50:28;2.80;;;1.40;;
7166;SDS011;3625;51.762;14.320;2023-07-28T02:52:56;2.13;;;1.25;;
7166;SDS011;3625;51.762;14.320;2023-07-28T02:55:26;1.55;;;1.40;;
7166;SDS011;3625;51.762;14.320;2023-07-28T02:57:55;1.40;;;1.30;;
7166;SDS011;3625;51.762;14.320;2023-07-28T03:00:24;1.48;;;1.25;;
7166;SDS011;3625;51.762;14.320;2023-07-28T03:02:52;2.35;;;1.20;;
7166;SDS011;3625;51.762;14.320;2023-07-28T03:05:21;1.38;;;1.27;;
7166;SDS011;3625;51.762;14.320;2023-07-28T03:08:12;1.63;;;1.30;;
7166;SDS011;3625;51.762;14.320;2023-07-28T03:10:43;1.40;;;1.30;;
7166;SDS011;3625;51.762;14.320;2023-07-28T03:13:11;3.30;;;1.55;;
7166;SDS011;3625;51.762;14.320;2023-07-28T03:15:40;1.40;;;1.30;;
7166;SDS011;3625;51.762;14.320;2023-07-28T03:18:09;1.90;;;1.40;;
7166;SDS011;3625;51.762;14.320;2023-07-28T03:20:37;1.83;;;1.20;;
7166;SDS011;3625;51.762;14.320;2023-07-28T03:23:05;2.53;;;1.33;;
7166;SDS011;3625;51.762;14.320;2023-07-28T03:25:34;1.48;;;1.38;;
7166;SDS011;3625;51.762;14.320;2023-07-28T03:28:04;1.23;;;1.13;;
7166;SDS011;3625;51.762;14.320;2023-07-28T03:30:32;1.60;;;1.38;;
7166;SDS011;3625;51.762;14.320;2023-07-28T03:33:01;1.30;;;1.20;;
7166;SDS011;3625;51.762;14.320;2023-07-28T03:35:30;1.42;;;1.33;;
7166;SDS011;3625;51.762;14.320;2023-07-28T03:38:05;1.50;;;1.40;;
7166;SDS011;3625;51.762;14.320;2023-07-28T03:40:34;2.10;;;1.60;;
7166;SDS011;3625;51.762;14.320;2023-07-28T03:43:04;1.40;;;1.30;;
7166;SDS011;3625;51.762;14.320;2023-07-28T03:45:32;1.17;;;1.17;;
7166;SDS011;3625;51.762;14.320;2023-07-28T03:48:01;2.17;;;1.13;;
7166;SDS011;3625;51.762;14.320;2023-07-28T03:50:30;1.35;;;1.20;;
7166;SDS011;3625;51.762;14.320;2023-07-28T03:52:58;1.73;;;1.40;;
7166;SDS011;3625;51.762;14.320;2023-07-28T03:55:26;1.92;;;1.30;;
7166;SDS011;3625;51.762;14.320;2023-07-28T03:57:55;2.40;;;1.30;;
7166;SDS011;3625;51.762;14.320;2023-07-28T04:00:25;1.85;;;1.20;;
7166;SDS011;3625;51.762;14.320;2023-07-28T04:02:53;1.38;;;1.20;;
7166;SDS011;3625;51.762;14.320;2023-07-28T04:05:22;1.20;;;1.10;;
7166;SDS011;3625;51.762;14.320;2023-07-28T04:07:51;1.70;;;1.20;;
7166;SDS011;3625;51.762;14.320;2023-07-28T04:10:19;1.13;;;1.02;;
7166;SDS011;3625;51.762;14.320;2023-07-28T04:12:49;2.03;;;1.20;;
7166;SDS011;3625;51.762;14.320;2023-07-28T04:15:18;1.83;;;1.40;;
7166;SDS011;3625;51.762;14.320;2023-07-28T04:17:49;2.20;;;1.23;;
7166;SDS011;3625;51.762;14.320;2023-07-28T04:20:17;1.92;;;1.20;;
7166;SDS011;3625;51.762;14.320;2023-07-28T04:22:46;1.88;;;1.20;;
7166;SDS011;3625;51.762;14.320;2023-07-28T04:25:15;1.38;;;1.27;;
7166;SDS011;3625;51.762;14.320;2023-07-28T04:27:46;2.17;;;1.40;;
7166;SDS011;3625;51.762;14.320;2023-07-28T04:30:15;2.42;;;1.40;;
7166;SDS011;3625;51.762;14.320;2023-07-28T04:32:43;2.65;;;1.20;;
7166;SDS011;3625;51.762;14.320;2023-07-28T04:35:18;2.30;;;1.40;;
7166;SDS011;3625;51.762;14.320;2023-07-28T04:37:56;3.25;;;1.50;;
7166;SDS011;3625;51.762;14.320;2023-07-28T04:40:36;3.10;;;1.40;;
7166;SDS011;3625;51.762;14.320;2023-07-28T04:43:06;2.33;;;1.35;;
7166;SDS011;3625;51.762;14.320;2023-07-28T04:45:34;1.42;;;1.30;;
7166;SDS011;3625;51.762;14.320;2023-07-28T04:48:10;1.95;;;1.40;;
7166;SDS011;3625;51.762;14.320;2023-07-28T04:50:40;1.58;;;1.30;;
7166;SDS011;3625;51.762;14.320;2023-07-28T04:53:29;3.13;;;1.60;;
7166;SDS011;3625;51.762;14.320;2023-07-28T04:56:22;1.73;;;1.23;;
7166;SDS011;3625;51.762;14.320;2023-07-28T04:58:51;1.20;;;1.10;;
7166;SDS011;3625;51.762;14.320;2023-07-28T05:01:19;2.45;;;1.42;;
7166;SDS011;3625;51.762;14.320;2023-07-28T05:03:48;1.67;;;1.40;;
7166;SDS011;3625;51.762;14.320;2023-07-28T05:06:22;2.35;;;1.40;;
7166;SDS011;3625;51.762;14.320;2023-07-28T05:08:51;1.50;;;1.25;;
7166;SDS011;3625;51.762;14.320;2023-07-28T05:11:26;2.30;;;1.30;;
7166;SDS011;3625;51.762;14.320;2023-07-28T05:13:54;3.03;;;1.38;;
7166;SDS011;3625;51.762;14.320;2023-07-28T05:16:23;2.00;;;1.50;;
7166;SDS011;3625;51.762;14.320;2023-07-28T05:19:06;2.05;;;1.55;;
7166;SDS011;3625;51.762;14.320;2023-07-28T05:21:55;2.55;;;1.60;;
7166;SDS011;3625;51.762;14.320;2023-07-28T05:24:41;1.70;;;1.60;;
7166;SDS011;3625;51.762;14.320;2023-07-28T05:27:10;2.08;;;1.60;;
7166;SDS011;3625;51.762;14.320;2023-07-28T05:29:43;1.20;;;1.20;;
7166;SDS011;3625;51.762;14.320;2023-07-28T05:32:11;3.97;;;1.45;;
7166;SDS011;3625;51.762;14.320;2023-07-28T05:35:03;2.47;;;1.20;;
7166;SDS011;3625;51.762;14.320;2023-07-28T05:37:34;2.75;;;1.40;;
7166;SDS011;3625;51.762;14.320;2023-07-28T05:40:03;2.72;;;1.40;;
7166;SDS011;3625;51.762;14.320;2023-07-28T05:42:33;4.68;;;1.60;;
7166;SDS011;3625;51.762;14.320;2023-07-28T05:45:03;3.20;;;1.70;;
7166;SDS011;3625;51.762;14.320;2023-07-28T05:47:32;2.33;;;1.58;;
7166;SDS011;3625;51.762;14.320;2023-07-28T05:50:03;2.05;;;1.48;;
7166;SDS011;3625;51.762;14.320;2023-07-28T05:52:34;2.00;;;1.35;;
7166;SDS011;3625;51.762;14.320;2023-07-28T05:55:03;1.63;;;1.52;;
7166;SDS011;3625;51.762;14.320;2023-07-28T05:57:32;2.15;;;1.50;;
7166;SDS011;3625;51.762;14.320;2023-07-28T06:00:05;1.50;;;1.40;;
7166;SDS011;3625;51.762;14.320;2023-07-28T06:02:42;1.38;;;1.27;;
7166;SDS011;3625;51.762;14.320;2023-07-28T06:05:26;2.03;;;1.40;;
7166;SDS011;3625;51.762;14.320;2023-07-28T06:07:56;1.40;;;1.30;;
7166;SDS011;3625;51.762;14.320;2023-07-28T06:10:24;1.73;;;1.40;;
7166;SDS011;3625;51.762;14.320;2023-07-28T06:12:53;1.50;;;1.30;;
7166;SDS011;3625;51.762;14.320;2023-07-28T06:15:22;1.60;;;1.50;;
7166;SDS011;3625;51.762;14.320;2023-07-28T06:17:51;1.77;;;1.40;;
7166;SDS011;3625;51.762;14.320;2023-07-28T06:20:19;1.75;;;1.20;;
7166;SDS011;3625;51.762;14.320;2023-07-28T06:22:48;1.70;;;1.50;;
7166;SDS011;3625;51.762;14.320;2023-07-28T06:25:18;1.80;;;1.30;;
7166;SDS011;3625;51.762;14.320;2023-07-28T06:27:47;4.78;;;1.67;;
7166;SDS011;3625;51.762;14.320;2023-07-28T06:30:16;4.47;;;1.70;;
7166;SDS011;3625;51.762;14.320;2023-07-28T06:32:44;2.40;;;1.48;;
7166;SDS011;3625;51.762;14.320;2023-07-28T06:35:13;2.70;;;1.50;;
7166;SDS011;3625;51.762;14.320;2023-07-28T06:37:42;3.08;;;1.33;;
7166;SDS011;3625;51.762;14.320;2023-07-28T06:40:11;1.50;;;1.40;;
7166;SDS011;3625;51.762;14.320;2023-07-28T06:42:41;2.22;;;1.60;;
7166;SDS011;3625;51.762;14.320;2023-07-28T06:45:09;2.97;;;1.52;;
7166;SDS011;3625;51.762;14.320;2023-07-28T06:47:40;2.10;;;1.27;;
7166;SDS011;3625;51.762;14.320;2023-07-28T06:50:10;2.58;;;1.50;;
7166;SDS011;3625;51.762;14.320;2023-07-28T06:52:40;1.45;;;1.20;;
7166;SDS011;3625;51.762;14.320;2023-07-28T06:55:08;2.70;;;1.30;;
7166;SDS011;3625;51.762;14.320;2023-07-28T06:57:40;1.30;;;1.17;;
7166;SDS011;3625;51.762;14.320;2023-07-28T07:00:11;1.17;;;0.95;;
7166;SDS011;3625;51.762;14.320;2023-07-28T07:02:41;1.45;;;1.05;;
7166;SDS011;3625;51.762;14.320;2023-07-28T07:05:09;2.38;;;1.30;;
7166;SDS011;3625;51.762;14.320;2023-07-28T07:07:39;2.35;;;1.25;;
7166;SDS011;3625;51.762;14.320;2023-07-28T07:10:08;1.08;;;1.00;;
7166;SDS011;3625;51.762;14.320;2023-07-28T07:12:37;2.97;;;1.42;;
7166;SDS011;3625;51.762;14.320;2023-07-28T07:15:08;2.90;;;1.02;;
7166;SDS011;3625;51.762;14.320;2023-07-28T07:17:38;1.20;;;1.10;;
7166;SDS011;3625;51.762;14.320;2023-07-28T07:20:07;1.20;;;0.93;;
7166;SDS011;3625;51.762;14.320;2023-07-28T07:22:38;0.93;;;0.93;;
7166;SDS011;3625;51.762;14.320;2023-07-28T07:25:06;1.88;;;1.10;;
7166;SDS011;3625;51.762;14.320;2023-07-28T07:27:35;1.88;;;1.02;;
7166;SDS011;3625;51.762;14.320;2023-07-28T07:30:04;1.73;;;0.90;;
7166;SDS011;3625;51.762;14.320;2023-07-28T07:32:36;1.50;;;1.00;;
7166;SDS011;3625;51.762;14.320;2023-07-28T07:35:05;1.52;;;1.00;;
7166;SDS011;3625;51.762;14.320;2023-07-28T07:37:35;1.42;;;0.90;;
7166;SDS011;3625;51.762;14.320;2023-07-28T07:40:03;0.73;;;0.73;;
7166;SDS011;3625;51.762;14.320;2023-07-28T07:42:40;1.35;;;0.80;;
7166;SDS011;3625;51.762;14.320;2023-07-28T07:45:12;1.30;;;1.20;;
7166;SDS011;3625;51.762;14.320;2023-07-28T07:47:41;0.88;;;0.80;;
7166;SDS011;3625;51.762;14.320;2023-07-28T07:50:10;2.58;;;1.20;;
7166;SDS011;3625;51.762;14.320;2023-07-28T07:52:40;0.88;;;0.88;;
7166;SDS011;3625;51.762;14.320;2023-07-28T07:55:08;1.10;;;1.00;;
7166;SDS011;3625;51.762;14.320;2023-07-28T07:57:38;1.58;;;0.80;;
7166;SDS011;3625;51.762;14.320;2023-07-28T08:00:08;1.25;;;0.90;;
7166;SDS011;3625;51.762;14.320;2023-07-28T08:02:39;2.00;;;1.00;;
7166;SDS011;3625;51.762;14.320;2023-07-28T08:05:12;1.75;;;1.20;;
7166;SDS011;3625;51.762;14.320;2023-07-28T08:07:41;0.90;;;0.90;;
7166;SDS011;3625;51.762;14.320;2023-07-28T08:10:10;2.40;;;1.20;;
7166;SDS011;3625;51.762;14.320;2023-07-28T08:12:39;0.90;;;0.90;;
7166;SDS011;3625;51.762;14.320;2023-07-28T08:15:08;1.48;;;1.10;;
7166;SDS011;3625;51.762;14.320;2023-07-28T08:17:37;1.02;;;1.00;;
7166;SDS011;3625;51.762;14.320;2023-07-28T08:20:07;1.50;;;1.00;;
7166;SDS011;3625;51.762;14.320;2023-07-28T08:22:37;2.45;;;1.20;;
7166;SDS011;3625;51.762;14.320;2023-07-28T08:25:06;1.10;;;1.00;;
7166;SDS011;3625;51.762;14.320;2023-07-28T08:27:34;2.72;;;1.00;;
7166;SDS011;3625;51.762;14.320;2023-07-28T08:30:03;0.80;;;0.80;;
7166;SDS011;3625;51.762;14.320;2023-07-28T08:32:33;2.65;;;1.20;;
7166;SDS011;3625;51.762;14.320;2023-07-28T08:35:01;1.02;;;0.95;;
7166;SDS011;3625;51.762;14.320;2023-07-28T08:37:32;1.00;;;0.90;;
7166;SDS011;3625;51.762;14.320;2023-07-28T08:40:06;0.93;;;0.80;;
7166;SDS011;3625;51.762;14.320;2023-07-28T08:42:36;0.98;;;0.90;;
7166;SDS011;3625;51.762;14.320;2023-07-28T08:45:07;1.02;;;0.90;;
7166;SDS011;3625;51.762;14.320;2023-07-28T08:47:36;0.85;;;0.85;;
7166;SDS011;3625;51.762;14.320;2023-07-28T08:50:05;2.03;;;1.00;;
7166;SDS011;3625;51.762;14.320;2023-07-28T08:52:36;1.05;;;0.82;;
7166;SDS011;3625;51.762;14.320;2023-07-28T08:55:05;1.20;;;1.10;;
7166;SDS011;3625;51.762;14.320;2023-07-28T08:57:35;1.60;;;0.90;;
7166;SDS011;3625;51.762;14.320;2023-07-28T09:00:08;1.42;;;0.98;;
7166;SDS011;3625;51.762;14.320;2023-07-28T09:02:41;2.30;;;0.90;;
7166;SDS011;3625;51.762;14.320;2023-07-28T09:05:16;1.63;;;1.00;;
7166;SDS011;3625;51.762;14.320;2023-07-28T09:07:47;0.98;;;0.88;;
7166;SDS011;3625;51.762;14.320;2023-07-28T09:10:16;0.95;;;0.93;;
7166;SDS011;3625;51.762;14.320;2023-07-28T09:12:45;0.90;;;0.90;;
7166;SDS011;3625;51.762;14.320;2023-07-28T09:15:15;0.95;;;0.90;;
7166;SDS011;3625;51.762;14.320;2023-07-28T09:17:47;1.10;;;0.95;;
7166;SDS011;3625;51.762;14.320;2023-07-28T09:20:16;1.20;;;0.90;;
7166;SDS011;3625;51.762;14.320;2023-07-28T09:22:45;0.88;;;0.88;;
7166;SDS011;3625;51.762;14.320;2023-07-28T09:25:16;2.50;;;1.42;;
7166;SDS011;3625;51.762;14.320;2023-07-28T09:27:49;0.98;;;0.80;;
7166;SDS011;3625;51.762;14.320;2023-07-28T09:30:19;1.50;;;0.98;;
7166;SDS011;3625;51.762;14.320;2023-07-28T09:32:49;1.98;;;0.80;;
7166;SDS011;3625;51.762;14.320;2023-07-28T09:35:20;0.93;;;0.82;;
7166;SDS011;3625;51.762;14.320;2023-07-28T09:37:50;1.27;;;0.80;;
7166;SDS011;3625;51.762;14.320;2023-07-28T09:40:23;0.68;;;0.68;;
7166;SDS011;3625;51.762;14.320;2023-07-28T09:42:53;1.40;;;0.93;;
7166;SDS011;3625;51.762;14.320;2023-07-28T09:45:25;1.77;;;0.90;;
7166;SDS011;3625;51.762;14.320;2023-07-28T09:48:04;2.30;;;0.65;;
7166;SDS011;3625;51.762;14.320;2023-07-28T09:50:37;0.80;;;0.80;;
7166;SDS011;3625;51.762;14.320;2023-07-28T09:53:09;2.25;;;0.90;;
7166;SDS011;3625;51.762;14.320;2023-07-28T09:55:40;1.30;;;0.90;;
7166;SDS011;3625;51.762;14.320;2023-07-28T09:58:11;1.30;;;0.90;;
7166;SDS011;3625;51.762;14.320;2023-07-28T10:00:45;1.33;;;0.88;;
7166;SDS011;3625;51.762;14.320;2023-07-28T10:03:16;1.02;;;0.82;;
7166;SDS011;3625;51.762;14.320;2023-07-28T10:05:51;1.30;;;1.20;;
7166;SDS011;3625;51.762;14.320;2023-07-28T10:08:23;2.08;;;1.15;;
7166;SDS011;3625;51.762;14.320;2023-07-28T10:10:55;0.90;;;0.90;;
7166;SDS011;3625;51.762;14.320;2023-07-28T10:13:24;1.20;;;1.10;;
7166;SDS011;3625;51.762;14.320;2023-07-28T10:15:54;1.95;;;1.13;;
7166;SDS011;3625;51.762;14.320;2023-07-28T10:18:23;1.10;;;1.00;;
7166;SDS011;3625;51.762;14.320;2023-07-28T10:20:58;1.55;;;1.10;;
7166;SDS011;3625;51.762;14.320;2023-07-28T10:23:34;1.25;;;1.10;;
7166;SDS011;3625;51.762;14.320;2023-07-28T10:26:06;0.90;;;0.90;;
7166;SDS011;3625;51.762;14.320;2023-07-28T10:28:38;1.33;;;1.10;;
7166;SDS011;3625;51.762;14.320;2023-07-28T10:31:08;1.55;;;1.08;;
7166;SDS011;3625;51.762;14.320;2023-07-28T10:33:39;1.00;;;0.90;;
7166;SDS011;3625;51.762;14.320;2023-07-28T10:36:14;1.15;;;1.00;;
7166;SDS011;3625;51.762;14.320;2023-07-28T10:38:46;1.23;;;1.10;;
7166;SDS011;3625;51.762;14.320;2023-07-28T10:41:28;1.67;;;1.20;;
7166;SDS011;3625;51.762;14.320;2023-07-28T10:43:58;1.38;;;1.15;;
7166;SDS011;3625;51.762;14.320;2023-07-28T10:46:31;1.00;;;1.00;;
7166;SDS011;3625;51.762;14.320;2023-07-28T10:49:04;0.98;;;0.98;;
7166;SDS011;3625;51.762;14.320;2023-07-28T10:51:35;0.70;;;0.70;;
7166;SDS011;3625;51.762;14.320;2023-07-28T10:54:04;1.80;;;1.38;;
7166;SDS011;3625;51.762;14.320;2023-07-28T10:56:34;1.67;;;0.95;;
7166;SDS011;3625;51.762;14.320;2023-07-28T10:59:04;1.95;;;1.00;;
7166;SDS011;3625;51.762;14.320;2023-07-28T11:01:33;1.05;;;1.00;;
7166;SDS011;3625;51.762;14.320;2023-07-28T11:04:06;1.85;;;1.10;;
7166;SDS011;3625;51.762;14.320;2023-07-28T11:06:38;1.70;;;0.93;;
7166;SDS011;3625;51.762;14.320;2023-07-28T11:09:15;1.08;;;0.98;;
7166;SDS011;3625;51.762;14.320;2023-07-28T11:11:48;1.20;;;0.90;;
7166;SDS011;3625;51.762;14.320;2023-07-28T11:14:18;0.80;;;0.77;;
7166;SDS011;3625;51.762;14.320;2023-07-28T11:16:47;0.80;;;0.80;;
7166;SDS011;3625;51.762;14.320;2023-07-28T11:19:17;1.10;;;1.10;;
7166;SDS011;3625;51.762;14.320;2023-07-28T11:21:52;0.80;;;0.80;;
7166;SDS011;3625;51.762;14.320;2023-07-28T11:24:24;1.45;;;0.80;;
7166;SDS011;3625;51.762;14.320;2023-07-28T11:26:56;1.65;;;0.80;;
7166;SDS011;3625;51.762;14.320;2023-07-28T11:29:26;1.23;;;0.95;;
7166;SDS011;3625;51.762;14.320;2023-07-28T11:31:55;0.90;;;0.85;;
7166;SDS011;3625;51.762;14.320;2023-07-28T11:34:24;6.78;;;1.08;;
7166;SDS011;3625;51.762;14.320;2023-07-28T11:36:53;0.80;;;0.80;;
7166;SDS011;3625;51.762;14.320;2023-07-28T11:39:24;1.20;;;0.90;;
7166;SDS011;3625;51.762;14.320;2023-07-28T11:41:55;0.93;;;0.90;;
7166;SDS011;3625;51.762;14.320;2023-07-28T11:44:24;0.77;;;0.77;;
7166;SDS011;3625;51.762;14.320;2023-07-28T11:46:56;1.13;;;0.80;;
7166;SDS011;3625;51.762;14.320;2023-07-28T11:49:24;0.93;;;0.93;;
7166;SDS011;3625;51.762;14.320;2023-07-28T11:51:54;0.75;;;0.70;;
7166;SDS011;3625;51.762;14.320;2023-07-28T11:54:26;3.47;;;1.42;;
7166;SDS011;3625;51.762;14.320;2023-07-28T11:56:56;0.98;;;0.95;;
7166;SDS011;3625;51.762;14.320;2023-07-28T11:59:25;0.90;;;0.90;;
7166;SDS011;3625;51.762;14.320;2023-07-28T12:01:54;1.55;;;0.77;;
7166;SDS011;3625;51.762;14.320;2023-07-28T12:04:28;0.70;;;0.70;;
7166;SDS011;3625;51.762;14.320;2023-07-28T12:07:06;1.05;;;0.90;;
7166;SDS011;3625;51.762;14.320;2023-07-28T12:09:48;0.80;;;0.80;;
7166;SDS011;3625;51.762;14.320;2023-07-28T12:12:27;1.63;;;0.80;;
7166;SDS011;3625;51.762;14.320;2023-07-28T12:15:21;0.70;;;0.70;;
7166;SDS011;3625;51.762;14.320;2023-07-28T12:18:03;1.27;;;0.80;;
7166;SDS011;3625;51.762;14.320;2023-07-28T12:20:40;1.15;;;0.98;;
7166;SDS011;3625;51.762;14.320;2023-07-28T12:23:13;2.30;;;1.00;;
7166;SDS011;3625;51.762;14.320;2023-07-28T12:25:49;0.85;;;0.85;;
7166;SDS011;3625;51.762;14.320;2023-07-28T12:28:21;0.93;;;0.93;;
7166;SDS011;3625;51.762;14.320;2023-07-28T12:30:50;1.05;;;0.90;;
7166;SDS011;3625;51.762;14.320;2023-07-28T12:33:19;0.98;;;0.90;;
7166;SDS011;3625;51.762;14.320;2023-07-28T12:35:49;1.00;;;0.90;;
7166;SDS011;3625;51.762;14.320;2023-07-28T12:38:26;0.90;;;0.90;;
7166;SDS011;3625;51.762;14.320;2023-07-28T12:41:01;1.05;;;0.93;;
7166;SDS011;3625;51.762;14.320;2023-07-28T12:43:34;1.58;;;1.00;;
7166;SDS011;3625;51.762;14.320;2023-07-28T12:46:06;1.10;;;1.00;;
7166;SDS011;3625;51.762;14.320;2023-07-28T12:48:37;1.65;;;1.10;;
7166;SDS011;3625;51.762;14.320;2023-07-28T12:51:08;0.93;;;0.93;;
7166;SDS011;3625;51.762;14.320;2023-07-28T12:53:37;1.20;;;1.10;;
7166;SDS011;3625;51.762;14.320;2023-07-28T12:56:10;1.10;;;1.00;;
7166;SDS011;3625;51.762;14.320;2023-07-28T12:59:00;1.50;;;0.90;;
7166;SDS011;3625;51.762;14.320;2023-07-28T13:01:31;1.15;;;1.00;;
7166;SDS011;3625;51.762;14.320;2023-07-28T13:04:00;1.20;;;1.10;;
7166;SDS011;3625;51.762;14.320;2023-07-28T13:06:32;1.95;;;1.15;;
7166;SDS011;3625;51.762;14.320;2023-07-28T13:09:07;1.35;;;1.20;;
7166;SDS011;3625;51.762;14.320;2023-07-28T13:11:39;1.13;;;1.10;;
7166;SDS011;3625;51.762;14.320;2023-07-28T13:14:14;1.10;;;0.95;;
7166;SDS011;3625;51.762;14.320;2023-07-28T13:16:43;3.53;;;1.38;;
7166;SDS011;3625;51.762;14.320;2023-07-28T13:19:12;1.55;;;1.20;;
7166;SDS011;3625;51.762;14.320;2023-07-28T13:21:43;1.20;;;1.10;;
7166;SDS011;3625;51.762;14.320;2023-07-28T13:24:11;1.23;;;1.10;;
7166;SDS011;3625;51.762;14.320;2023-07-28T13:26:44;1.10;;;1.00;;
7166;SDS011;3625;51.762;14.320;2023-07-28T13:29:14;1.27;;;1.10;;
7166;SDS011;3625;51.762;14.320;2023-07-28T13:31:45;2.60;;;1.20;;
7166;SDS011;3625;51.762;14.320;2023-07-28T13:34:13;1.10;;;1.10;;
7166;SDS011;3625;51.762;14.320;2023-07-28T13:36:42;1.20;;;1.10;;
7166;SDS011;3625;51.762;14.320;2023-07-28T13:39:11;1.52;;;1.20;;
7166;SDS011;3625;51.762;14.320;2023-07-28T13:41:42;1.77;;;1.20;;
7166;SDS011;3625;51.762;14.320;2023-07-28T13:44:12;1.00;;;1.00;;
7166;SDS011;3625;51.762;14.320;2023-07-28T13:46:57;1.48;;;1.02;;
7166;SDS011;3625;51.762;14.320;2023-07-28T13:49:29;1.10;;;1.00;;
7166;SDS011;3625;51.762;14.320;2023-07-28T13:52:00;1.20;;;1.10;;
7166;SDS011;3625;51.762;14.320;2023-07-28T13:54:34;1.17;;;1.10;;
7166;SDS011;3625;51.762;14.320;2023-07-28T13:57:07;1.48;;;1.38;;
7166;SDS011;3625;51.762;14.320;2023-07-28T13:59:38;1.20;;;1.10;;
7166;SDS011;3625;51.762;14.320;2023-07-28T14:02:07;1.23;;;1.13;;
7166;SDS011;3625;51.762;14.320;2023-07-28T14:04:36;2.15;;;1.20;;
7166;SDS011;3625;51.762;14.320;2023-07-28T14:07:10;1.23;;;1.13;;
7166;SDS011;3625;51.762;14.320;2023-07-28T14:09:39;1.30;;;1.20;;
7166;SDS011;3625;51.762;14.320;2023-07-28T14:12:08;2.03;;;1.35;;
7166;SDS011;3625;51.762;14.320;2023-07-28T14:14:36;1.27;;;1.17;;
7166;SDS011;3625;51.762;14.320;2023-07-28T14:17:08;1.17;;;1.08;;
7166;SDS011;3625;51.762;14.320;2023-07-28T14:19:42;1.20;;;1.10;;
7166;SDS011;3625;51.762;14.320;2023-07-28T14:22:11;1.20;;;1.10;;
7166;SDS011;3625;51.762;14.320;2023-07-28T14:24:40;1.40;;;1.30;;
7166;SDS011;3625;51.762;14.320;2023-07-28T14:27:08;1.70;;;1.60;;
7166;SDS011;3625;51.762;14.320;2023-07-28T14:29:38;1.55;;;1.45;;
7166;SDS011;3625;51.762;14.320;2023-07-28T14:32:07;1.40;;;1.30;;
7166;SDS011;3625;51.762;14.320;2023-07-28T14:34:37;3.10;;;1.42;;
7166;SDS011;3625;51.762;14.320;2023-07-28T14:37:14;1.50;;;1.40;;
7166;SDS011;3625;51.762;14.320;2023-07-28T14:39:43;1.42;;;1.33;;
7166;SDS011;3625;51.762;14.320;2023-07-28T14:42:11;1.48;;;1.35;;
7166;SDS011;3625;51.762;14.320;2023-07-28T14:44:41;1.27;;;1.20;;
7166;SDS011;3625;51.762;14.320;2023-07-28T14:47:11;2.22;;;1.30;;
7166;SDS011;3625;51.762;14.320;2023-07-28T14:49:40;1.50;;;1.38;;
7166;SDS011;3625;51.762;14.320;2023-07-28T14:52:09;1.52;;;1.42;;
7166;SDS011;3625;51.762;14.320;2023-07-28T14:54:37;1.42;;;1.33;;
7166;SDS011;3625;51.762;14.320;2023-07-28T14:57:06;1.58;;;1.48;;
7166;SDS011;3625;51.762;14.320;2023-07-28T15:00:00;1.40;;;1.30;;
7166;SDS011;3625;51.762;14.320;2023-07-28T15:02:33;1.33;;;1.23;;
7166;SDS011;3625;51.762;14.320;2023-07-28T15:05:03;2.13;;;1.40;;
7166;SDS011;3625;51.762;14.320;2023-07-28T15:07:33;1.58;;;1.40;;
7166;SDS011;3625;51.762;14.320;2023-07-28T15:10:03;1.98;;;1.50;;
7166;SDS011;3625;51.762;14.320;2023-07-28T15:12:32;1.35;;;1.25;;
7166;SDS011;3625;51.762;14.320;2023-07-28T15:15:02;1.40;;;1.30;;
7166;SDS011;3625;51.762;14.320;2023-07-28T15:17:32;2.13;;;1.23;;
7166;SDS011;3625;51.762;14.320;2023-07-28T15:20:00;1.38;;;1.23;;
7166;SDS011;3625;51.762;14.320;2023-07-28T15:22:32;1.65;;;1.55;;
7166;SDS011;3625;51.762;14.320;2023-07-28T15:25:03;1.60;;;1.50;;